Time;durP1;ratioP1;P1;durP2;ratioP2;P2;SDS_P1;SDS_P2;PMS_P1;PMS_P2;Temp;Humidity;BMP_temperature;BMP_pressure;BME280_temperature;BME280_humidity;BME280_pressure;Samples;Min_cycle;Max_cycle;Signal;HPM_P1;HPM_P2
2021/04/15 00:03:36;;;;;;;6.27;4.30;;;;;;;5.92;44.07;98822.91;8263505;28;20230;-69
2021/04/15 00:07:39;;;;;;;8.07;3.90;;;;;;;5.79;44.43;98830.78;8263887;28;20498;-69
2021/04/15 00:11:41;;;;;;;7.63;4.17;;;;;;;5.76;44.78;98820.53;8264165;28;20210;-69
2021/04/15 00:15:44;;;;;;;5.90;4.50;;;;;;;5.79;44.79;98819.66;8263855;28;20238;-69
2021/04/15 00:19:46;;;;;;;8.57;4.50;;;;;;;5.78;44.55;98823.09;8264126;28;20213;-69
2021/04/15 00:23:48;;;;;;;5.23;3.97;;;;;;;5.79;44.75;98825.66;8264263;28;20587;-69
2021/04/15 00:27:50;;;;;;;5.60;3.80;;;;;;;5.65;45.07;98812.97;8264268;28;20212;-69
2021/04/15 00:31:52;;;;;;;7.10;4.33;;;;;;;5.60;45.17;98812.16;8264095;28;20198;-70
2021/04/15 00:35:54;;;;;;;10.07;4.43;;;;;;;5.68;45.23;98809.50;8263762;28;20240;-69
2021/04/15 00:39:57;;;;;;;7.33;4.47;;;;;;;5.58;45.34;98816.44;8263793;28;20205;-69
2021/04/15 00:43:59;;;;;;;8.63;4.73;;;;;;;5.58;45.27;98811.31;8264405;28;20559;-68
2021/04/15 00:48:05;;;;;;;7.70;5.03;;;;;;;5.56;45.03;98801.91;8264116;28;20202;-68
2021/04/15 00:52:09;;;;;;;9.23;4.97;;;;;;;5.66;44.99;98806.94;8263813;28;20569;-68
2021/04/15 00:56:13;;;;;;;8.40;5.00;;;;;;;5.60;45.45;98793.31;8263767;28;20517;-69
2021/04/15 01:00:17;;;;;;;7.37;4.70;;;;;;;5.59;45.51;98797.56;8264204;28;20205;-69
2021/04/15 01:04:19;;;;;;;9.57;4.73;;;;;;;5.48;45.62;98799.41;8263073;28;20261;-69
2021/04/15 01:08:21;;;;;;;7.17;4.70;;;;;;;5.53;45.37;98796.81;8263610;28;20206;-68
2021/04/15 01:12:51;;;;;;;7.80;4.70;;;;;;;5.41;45.38;98797.78;8263212;28;20214;-69
2021/04/15 01:17:00;;;;;;;7.70;4.57;;;;;;;5.38;45.41;98792.69;8263143;28;20237;-69
2021/04/15 01:21:46;;;;;;;9.17;5.20;;;;;;;5.40;45.17;98791.78;8263639;28;20190;-68
2021/04/15 01:26:14;;;;;;;9.53;4.93;;;;;;;5.41;45.06;98801.22;8238980;28;20237;-68
2021/04/15 01:30:21;;;;;;;6.60;4.50;;;;;;;5.28;44.99;98797.91;8269629;28;20244;-67
2021/04/15 01:34:26;;;;;;;5.73;4.80;;;;;;;5.35;45.55;98790.13;8269784;28;20198;-67
2021/04/15 01:38:33;;;;;;;7.67;5.03;;;;;;;5.26;45.45;98789.38;8269240;28;20206;-69
2021/04/15 01:42:39;;;;;;;5.50;4.30;;;;;;;5.13;45.51;98786.94;8268950;28;20237;-69
2021/04/15 01:46:43;;;;;;;7.37;4.20;;;;;;;5.17;45.51;98783.47;8269007;28;20290;-69
2021/04/15 01:50:49;;;;;;;7.97;4.53;;;;;;;5.06;45.80;98783.56;8268988;28;20733;-69
2021/04/15 01:54:55;;;;;;;7.00;4.27;;;;;;;5.12;45.60;98790.34;8268548;28;20217;-68
2021/04/15 01:59:01;;;;;;;8.20;4.50;;;;;;;5.14;45.95;98791.19;8268605;28;20206;-68
2021/04/15 02:03:07;;;;;;;6.20;4.47;;;;;;;5.12;45.83;98791.19;8247301;28;20230;-68
2021/04/15 02:07:13;;;;;;;7.17;4.60;;;;;;;5.09;46.48;98788.69;8236073;28;20207;-68
2021/04/15 02:11:19;;;;;;;6.33;4.37;;;;;;;4.97;46.99;98806.75;8236384;28;20194;-69
2021/04/15 02:15:24;;;;;;;7.73;4.30;;;;;;;4.90;47.17;98804.22;8236101;28;20222;-69
2021/04/15 02:19:37;;;;;;;6.30;4.57;;;;;;;4.78;46.49;98796.66;8236279;28;20234;-69
2021/04/15 02:23:43;;;;;;;7.37;4.40;;;;;;;4.90;46.53;98798.25;8235363;28;20234;-69
2021/04/15 02:27:49;;;;;;;5.40;4.50;;;;;;;4.93;46.49;98797.38;8235750;28;20202;-68
2021/04/15 02:31:53;;;;;;;6.50;4.13;;;;;;;4.90;46.29;98796.53;8235843;28;20218;-68
2021/04/15 02:35:58;;;;;;;8.93;4.67;;;;;;;5.02;46.08;98795.56;8235587;28;20561;-68
2021/04/15 02:40:04;;;;;;;5.40;3.80;;;;;;;4.90;46.36;98793.97;8234967;28;20207;-68
2021/04/15 02:44:10;;;;;;;6.50;4.03;;;;;;;4.83;46.58;98797.44;8235010;28;20346;-69
2021/04/15 02:48:16;;;;;;;6.33;4.20;;;;;;;4.78;46.86;98799.22;8234972;28;20206;-69
2021/04/15 02:52:22;;;;;;;5.30;4.03;;;;;;;4.73;46.82;98802.66;8234623;28;20297;-69
2021/04/15 02:56:26;;;;;;;6.20;4.17;;;;;;;4.77;46.56;98794.09;8234985;28;20214;-70
2021/04/15 03:00:32;;;;;;;5.93;4.13;;;;;;;4.62;46.85;98795.88;8235580;28;20210;-69
2021/04/15 03:04:35;;;;;;;9.00;4.43;;;;;;;4.68;46.91;98802.69;8266750;28;20228;-69
2021/04/15 03:08:39;;;;;;;6.90;4.10;;;;;;;4.72;46.44;98796.66;8260916;28;20256;-69
2021/04/15 03:12:43;;;;;;;4.97;3.93;;;;;;;4.69;46.74;98796.72;8266494;28;20551;-69
2021/04/15 03:16:46;;;;;;;5.83;4.20;;;;;;;4.63;46.24;98799.31;8265799;28;20269;-68
2021/04/15 03:20:51;;;;;;;7.43;4.33;;;;;;;4.58;46.73;98796.78;8266448;28;20206;-68
2021/04/15 03:24:56;;;;;;;6.30;3.90;;;;;;;4.62;46.26;98805.31;8266407;28;20221;-68
2021/04/15 03:29:06;;;;;;;6.13;4.23;;;;;;;4.64;46.40;98804.41;8266476;28;20197;-69
2021/04/15 03:33:11;;;;;;;7.87;3.97;;;;;;;4.54;46.52;98805.34;8266518;28;20214;-68
2021/04/15 03:37:16;;;;;;;6.87;4.00;;;;;;;4.48;46.30;98813.09;8265881;28;20190;-68
2021/04/15 03:41:22;;;;;;;6.00;4.17;;;;;;;4.42;46.11;98815.72;8265568;28;20198;-69
2021/04/15 03:45:28;;;;;;;5.63;4.30;;;;;;;4.36;46.36;98818.28;8266610;28;20328;-69
2021/04/15 03:49:34;;;;;;;5.80;3.90;;;;;;;4.38;46.99;98819.13;8265954;28;20190;-70
2021/04/15 03:53:39;;;;;;;7.53;3.87;;;;;;;4.23;48.16;98812.41;8265227;28;20236;-70
2021/04/15 03:57:42;;;;;;;6.33;3.93;;;;;;;4.37;48.03;98807.19;8265183;28;20608;-69
2021/04/15 04:01:47;;;;;;;4.70;3.40;;;;;;;4.38;47.89;98814.88;8265947;28;20598;-70
2021/04/15 04:05:53;;;;;;;11.00;4.00;;;;;;;4.32;48.01;98812.31;8264057;28;20245;-69
2021/04/15 04:10:02;;;;;;;6.97;3.80;;;;;;;4.35;47.18;98804.63;8265222;28;20213;-69
2021/04/15 04:14:10;;;;;;;11.13;6.53;;;;;;;4.18;47.57;98817.53;8265045;28;20210;-70
2021/04/15 04:18:15;;;;;;;9.40;5.33;;;;;;;4.28;47.20;98820.91;8265642;28;20615;-69
2021/04/15 04:22:21;;;;;;;8.97;4.70;;;;;;;4.17;47.26;98814.97;8265977;28;20190;-69
2021/04/15 04:26:30;;;;;;;5.70;3.70;;;;;;;4.24;47.03;98811.53;8265414;28;20380;-68
2021/04/15 04:30:35;;;;;;;8.13;3.67;;;;;;;4.22;47.05;98805.56;8265715;28;20205;-68
2021/04/15 04:34:38;;;;;;;4.63;3.50;;;;;;;4.27;47.49;98816.66;8264751;28;20201;-69
2021/04/15 04:38:40;;;;;;;6.00;3.47;;;;;;;4.20;47.63;98814.97;8263644;28;20202;-69
2021/04/15 04:42:44;;;;;;;5.77;3.90;;;;;;;4.16;47.79;98819.25;8264612;28;20241;-69
2021/04/15 04:46:48;;;;;;;7.83;3.83;;;;;;;4.19;47.20;98826.06;8264411;28;20213;-69
2021/04/15 04:50:53;;;;;;;6.07;3.97;;;;;;;4.21;47.25;98826.94;8263934;28;20504;-70
2021/04/15 04:54:55;;;;;;;6.73;4.17;;;;;;;4.28;46.80;98834.59;8264604;28;20282;-70
2021/04/15 04:58:59;;;;;;;7.53;4.57;;;;;;;4.30;46.53;98827.75;8263996;28;20216;-69
2021/04/15 05:03:02;;;;;;;7.47;4.13;;;;;;;4.43;46.43;98833.63;8266953;28;20229;-69
2021/04/15 05:07:06;;;;;;;9.23;4.70;;;;;;;4.41;46.75;98837.06;8268697;28;20256;-70
2021/04/15 05:11:08;;;;;;;7.90;4.30;;;;;;;4.43;47.04;98841.31;8270330;28;20287;-69
2021/04/15 05:15:12;;;;;;;8.40;4.47;;;;;;;4.42;47.35;98841.34;8268042;28;20532;-69
2021/04/15 05:19:15;;;;;;;11.73;4.97;;;;;;;4.42;47.12;98838.78;8268056;28;20234;-69
2021/04/15 05:23:21;;;;;;;7.27;4.27;;;;;;;4.42;47.47;98843.91;8267909;28;20252;-70
2021/04/15 05:27:24;;;;;;;9.20;4.50;;;;;;;4.40;48.12;98843.03;8267991;28;20292;-70
2021/04/15 05:31:29;;;;;;;5.73;4.30;;;;;;;4.50;47.86;98844.72;8267800;28;20585;-69
2021/04/15 05:35:36;;;;;;;7.07;4.50;;;;;;;4.54;47.97;98853.25;8268347;28;20210;-69
2021/04/15 05:39:38;;;;;;;7.73;4.10;;;;;;;4.32;48.70;98853.34;8269539;28;20198;-69
2021/04/15 05:43:43;;;;;;;9.33;4.93;;;;;;;4.33;48.82;98851.66;8269471;28;20232;-69
2021/04/15 05:47:52;;;;;;;9.53;4.57;;;;;;;4.52;48.44;98848.13;8270070;28;20205;-69
2021/04/15 05:51:59;;;;;;;12.90;4.93;;;;;;;4.74;48.13;98853.13;8269418;28;20528;-69
2021/04/15 05:56:05;;;;;;;15.20;3.37;;;;;;;6.40;67.31;98856.66;8270810;28;20214;-74
2021/04/15 06:00:12;;;;;;;11.33;4.60;;;;;;;8.63;46.38;98857.91;8267435;28;20217;-74
2021/04/15 06:04:19;;;;;;;9.17;4.67;;;;;;;8.60;40.68;98852.78;8266328;28;20233;-69
2021/04/15 06:08:22;;;;;;;9.90;5.37;;;;;;;7.02;43.72;98854.03;8269638;28;20197;-70
2021/04/15 06:12:32;;;;;;;8.03;4.60;;;;;;;6.64;45.21;98853.75;8271802;28;20587;-70
2021/04/15 06:16:38;;;;;;;9.07;5.30;;;;;;;6.46;46.08;98859.16;8267427;28;20692;-69
2021/04/15 06:20:42;;;;;;;6.87;4.90;;;;;;;6.49;46.42;98859.09;8268772;28;20201;-70
2021/04/15 06:24:48;;;;;;;13.87;4.90;;;;;;;6.34;47.11;98860.16;8268786;28;20292;-70
2021/04/15 06:28:51;;;;;;;7.27;4.33;;;;;;;6.57;47.39;98862.41;8268084;28;20194;-70
2021/04/15 06:32:55;;;;;;;9.30;4.20;;;;;;;6.57;47.70;98857.28;8268016;28;20598;-69
2021/04/15 06:37:02;;;;;;;6.03;4.20;;;;;;;6.91;47.53;98858.50;8267748;28;20293;-70
2021/04/15 06:41:29;;;;;;;8.07;3.90;;;;;;;6.83;47.98;98862.06;8267098;28;20206;-69
2021/04/15 06:45:43;;;;;;;8.87;4.10;;;;;;;6.97;48.18;98869.56;8237483;28;20225;-69
2021/04/15 06:50:03;;;;;;;10.47;4.10;;;;;;;7.01;48.53;98868.63;8268543;28;20230;-69
2021/04/15 06:54:16;;;;;;;7.60;3.97;;;;;;;7.10;49.15;98862.50;8269150;28;20210;-69
2021/04/15 06:58:51;;;;;;;5.00;3.53;;;;;;;7.26;47.66;98859.69;8268576;28;20233;-69
2021/04/15 07:03:08;;;;;;;5.73;4.03;;;;;;;7.19;47.94;98858.91;8256127;28;20229;-69
2021/04/15 07:07:13;;;;;;;7.07;3.90;;;;;;;7.46;47.72;98856.75;8266884;28;20229;-70
2021/04/15 07:11:28;;;;;;;7.47;3.97;;;;;;;7.49;48.43;98860.13;8266016;28;20268;-69
2021/04/15 07:15:39;;;;;;;7.40;4.17;;;;;;;7.71;48.05;98862.31;8233816;28;20227;-69
2021/04/15 07:20:18;;;;;;;6.17;4.03;;;;;;;7.88;47.48;98873.19;8234075;28;20191;-69
2021/04/15 07:24:31;;;;;;;6.43;4.13;;;;;;;8.59;45.68;98864.03;8259545;28;20442;-70
2021/04/15 07:29:31;;;;;;;12.60;4.23;;;;;;;8.05;46.87;98875.41;8233674;28;20214;-70
2021/04/15 07:33:58;;;;;;;7.20;4.00;;;;;;;8.39;46.88;98874.72;8233641;28;20211;-70
2021/04/15 07:38:38;;;;;;;5.47;3.60;;;;;;;8.48;46.74;98871.97;8227020;28;20541;-69
2021/04/15 07:43:02;;;;;;;5.43;4.10;;;;;;;8.54;46.55;98869.25;8264944;28;20204;-69
2021/04/15 07:47:23;;;;;;;7.80;4.30;;;;;;;8.56;46.71;98879.56;8259659;28;20607;-68
2021/04/15 07:52:02;;;;;;;7.87;4.13;;;;;;;8.51;45.88;98876.22;8261161;28;20220;-63
2021/04/15 07:56:38;;;;;;;5.90;4.30;;;;;;;8.45;46.74;98871.19;8263793;28;20234;-63
2021/04/15 08:00:57;;;;;;;8.77;4.40;;;;;;;8.48;46.27;98881.47;8264449;28;20201;-62
2021/04/15 08:05:33;;;;;;;6.67;4.60;;;;;;;8.52;46.76;98878.78;8264097;28;20210;-62
2021/04/15 08:09:53;;;;;;;6.47;4.63;;;;;;;9.31;45.09;98882.13;8263951;28;20194;-62
2021/04/15 08:14:15;;;;;;;8.20;5.50;;;;;;;9.74;42.80;98881.06;8263891;28;20633;-61
2021/04/15 08:18:23;;;;;;;8.17;5.90;;;;;;;10.27;42.08;98878.75;8263436;28;20620;-60
2021/04/15 08:22:35;;;;;;;6.90;5.13;;;;;;;10.68;41.10;98883.63;8263770;28;20289;-63
2021/04/15 08:27:25;;;;;;;9.10;5.07;;;;;;;11.16;39.96;98883.00;8263435;28;20316;-63
2021/04/15 08:31:31;;;;;;;12.87;5.57;;;;;;;11.29;39.37;98883.44;8262763;28;20201;-64
2021/04/15 08:35:51;;;;;;;7.63;4.70;;;;;;;11.52;37.32;98880.13;8263136;28;20232;-71
2021/04/15 08:40:08;;;;;;;8.23;4.23;;;;;;;12.49;36.87;98884.50;8263443;28;20210;-68
2021/04/15 08:44:27;;;;;;;6.70;4.60;;;;;;;12.99;35.20;98875.66;8263965;28;20513;-69
2021/04/15 08:48:39;;;;;;;8.60;5.00;;;;;;;12.59;35.69;98885.00;8263453;28;20202;-69
2021/04/15 08:52:44;;;;;;;8.33;4.73;;;;;;;12.62;36.01;98884.88;8264120;28;20217;-69
2021/04/15 08:56:50;;;;;;;8.77;5.07;;;;;;;11.46;37.93;98870.78;8263545;28;20230;-68
2021/04/15 09:00:58;;;;;;;7.47;4.80;;;;;;;12.57;35.96;98879.00;8263181;28;20205;-69
2021/04/15 09:05:08;;;;;;;8.23;4.80;;;;;;;13.35;35.41;98875.94;8263254;28;20371;-69
2021/04/15 09:09:22;;;;;;;6.83;4.57;;;;;;;12.44;35.66;98876.03;8263500;28;20577;-68
2021/04/15 09:13:35;;;;;;;6.70;4.63;;;;;;;12.77;36.21;98880.84;8263214;28;20224;-68
2021/04/15 09:17:39;;;;;;;6.73;4.40;;;;;;;12.89;35.87;98880.38;8262972;28;20315;-67
2021/04/15 09:21:50;;;;;;;7.40;4.83;;;;;;;12.83;35.42;98876.25;8263125;28;20198;-68
2021/04/15 09:26:03;;;;;;;6.95;4.90;;;;;;;13.06;33.99;98879.69;8261711;28;20937;-64
2021/04/15 09:30:16;;;;;;;5.57;4.10;;;;;;;12.96;34.11;98870.56;8261554;28;20272;-65
2021/04/15 09:34:48;;;;;;;9.73;4.53;;;;;;;12.18;36.22;98867.44;8260654;28;20557;-65
2021/04/15 09:39:03;;;;;;;5.77;4.27;;;;;;;11.76;35.71;98867.19;8230079;28;20497;-64
2021/04/15 09:43:15;;;;;;;5.83;4.23;;;;;;;11.46;37.07;98859.53;8230214;28;20265;-64
2021/04/15 09:47:31;;;;;;;6.63;4.50;;;;;;;11.22;37.36;98861.22;8249266;28;20225;-64
2021/04/15 09:52:35;;;;;;;11.17;5.23;;;;;;;10.89;38.01;98854.47;8236871;28;20238;-66
2021/04/15 09:56:51;;;;;;;8.10;5.40;;;;;;;10.66;38.31;98857.78;8166850;28;20865;-64
2021/04/15 10:00:56;;;;;;;9.23;5.20;;;;;;;10.84;38.30;98864.13;8268525;28;20202;-67
2021/04/15 10:05:04;;;;;;;5.93;4.43;;;;;;;11.14;37.30;98853.69;8269593;28;20261;-67
2021/04/15 10:09:22;;;;;;;7.73;4.93;;;;;;;11.12;37.26;98858.94;8266531;28;20256;-68
2021/04/15 10:13:30;;;;;;;8.07;5.07;;;;;;;10.56;37.87;98846.00;8246169;28;20767;-68
2021/04/15 10:17:40;;;;;;;6.50;4.87;;;;;;;12.14;35.32;98850.28;8268676;28;20373;-69
2021/04/15 10:21:50;;;;;;;6.67;4.37;;;;;;;11.23;35.66;98831.78;8268034;28;20199;-68
2021/04/15 10:25:56;;;;;;;7.10;4.27;;;;;;;10.57;35.52;98837.34;8267869;28;20248;-69
2021/04/15 10:30:20;;;;;;;7.67;3.97;;;;;;;10.01;37.53;98844.97;8270286;28;20225;-71
2021/04/15 10:35:03;;;;;;;6.10;3.10;;;;;;;9.26;41.57;98850.41;8270980;28;20218;-69
2021/04/15 10:39:32;;;;;;;5.57;2.90;;;;;;;8.55;44.73;98837.41;8269566;28;20206;-68
2021/04/15 10:43:56;;;;;;;5.37;2.83;;;;;;;8.56;44.76;98843.41;8237470;28;20235;-68
2021/04/15 10:48:23;;;;;;;5.23;2.70;;;;;;;9.20;40.26;98833.31;8261985;28;20194;-69
2021/04/15 10:52:46;;;;;;;6.07;3.37;;;;;;;10.34;37.25;98827.69;8266864;28;20304;-69
2021/04/15 10:56:50;;;;;;;3.97;2.43;;;;;;;11.68;34.59;98828.53;8267198;28;20574;-69
2021/04/15 11:00:52;;;;;;;4.03;2.37;;;;;;;11.85;34.64;98825.34;8266824;28;20201;-69
2021/04/15 11:04:56;;;;;;;6.43;5.83;;;;;;;11.62;33.41;98820.97;8269158;28;20359;-69
2021/04/15 11:09:17;;;;;;;5.07;2.93;;;;;;;11.66;37.42;98826.00;8267106;28;20206;-68
2021/04/15 11:13:22;;;;;;;3.60;2.50;;;;;;;10.37;36.24;98828.41;8267295;28;20213;-68
2021/04/15 11:17:28;;;;;;;2.73;1.67;;;;;;;10.15;35.32;98838.53;8266376;28;20238;-69
2021/04/15 11:21:34;;;;;;;3.13;1.90;;;;;;;10.44;34.00;98834.25;8267208;28;20590;-68
2021/04/15 11:25:40;;;;;;;2.77;2.00;;;;;;;10.69;34.08;98836.09;8267430;28;20234;-69
2021/04/15 11:29:46;;;;;;;3.97;2.87;;;;;;;11.03;34.74;98828.13;8265116;28;20201;-69
2021/04/15 11:33:53;;;;;;;5.67;2.17;;;;;;;11.85;32.92;98823.59;8265926;28;20217;-69
2021/04/15 11:38:15;;;;;;;5.23;3.40;;;;;;;12.24;34.30;98822.22;8266079;28;20224;-69
2021/04/15 11:42:17;;;;;;;6.07;2.50;;;;;;;11.60;30.23;98809.81;8260525;28;20268;-69
2021/04/15 11:46:22;;;;;;;3.07;2.30;;;;;;;11.55;28.68;98807.34;8250882;28;20225;-69
2021/04/15 11:50:24;;;;;;;2.53;1.93;;;;;;;11.69;29.31;98797.34;8255011;28;20264;-69
2021/04/15 11:54:30;;;;;;;3.10;2.33;;;;;;;12.69;27.54;98805.75;8249201;28;20198;-69
2021/04/15 11:58:34;;;;;;;2.40;1.83;;;;;;;13.35;26.64;98795.31;8257851;28;20209;-69
2021/04/15 12:02:44;;;;;;;4.77;2.30;;;;;;;12.66;25.68;98788.56;8264277;28;20201;-69
2021/04/15 12:06:51;;;;;;;3.97;2.60;;;;;;;13.78;26.40;98787.38;8258456;28;20226;-69
2021/04/15 12:10:57;;;;;;;5.00;2.63;;;;;;;14.23;26.02;98792.28;8261193;28;20194;-68
2021/04/15 12:15:00;;;;;;;3.83;2.50;;;;;;;14.45;24.93;98791.28;8264106;28;20288;-70
2021/04/15 12:19:05;;;;;;;5.00;3.10;;;;;;;14.23;24.47;98787.06;8264665;28;20229;-69
2021/04/15 12:23:14;;;;;;;4.97;2.43;;;;;;;14.01;25.11;98782.00;8261503;28;20221;-68
2021/04/15 12:27:20;;;;;;;4.30;2.40;;;;;;;13.19;26.40;98773.41;8261099;28;20221;-69
2021/04/15 12:31:27;;;;;;;6.03;2.87;;;;;;;12.38;28.47;98781.00;8263070;28;20205;-69
2021/04/15 12:35:32;;;;;;;4.23;2.90;;;;;;;12.25;30.36;98777.16;8263944;28;20250;-65
2021/04/15 12:39:45;;;;;;;5.97;3.20;;;;;;;12.24;30.62;98781.53;8264095;28;20316;-65
2021/04/15 12:43:53;;;;;;;7.10;3.07;;;;;;;12.07;32.00;98776.09;8263951;28;20237;-64
2021/04/15 12:47:56;;;;;;;6.53;3.40;;;;;;;11.93;31.84;98769.66;8264139;28;20190;-64
2021/04/15 12:52:00;;;;;;;2.93;2.70;;;;;;;11.91;30.87;98766.28;8263674;28;20252;-65
2021/04/15 12:56:03;;;;;;;3.27;2.60;;;;;;;12.05;30.64;98755.41;8263650;28;20222;-65
2021/04/15 13:00:08;;;;;;;5.20;2.93;;;;;;;12.46;30.64;98752.13;8263412;28;20210;-61
2021/04/15 13:04:16;;;;;;;3.37;2.30;;;;;;;13.78;26.75;98741.34;8263498;28;20972;-60
2021/04/15 13:08:23;;;;;;;4.10;2.27;;;;;;;14.38;26.37;98740.38;8263533;28;20205;-62
2021/04/15 13:12:31;;;;;;;3.77;2.20;;;;;;;14.61;25.64;98726.28;8252196;28;20205;-63
2021/04/15 13:16:42;;;;;;;3.60;2.50;;;;;;;13.75;26.11;98741.50;8250238;28;20232;-61
2021/04/15 13:20:44;;;;;;;4.27;2.40;;;;;;;12.82;27.27;98739.38;8262668;28;20206;-68
2021/04/15 13:25:10;;;;;;;5.37;1.87;;;;;;;11.90;27.49;98743.84;8268224;28;20594;-69
2021/04/15 13:29:23;;;;;;;3.30;2.10;;;;;;;12.10;26.46;98729.25;8237213;28;20510;-69
2021/04/15 13:33:58;;;;;;;3.07;1.40;;;;;;;12.03;24.73;98722.59;8268947;28;20199;-69
2021/04/15 13:38:01;;;;;;;1.70;1.17;;;;;;;12.23;24.17;98720.09;8268886;28;20666;-71
2021/04/15 13:42:09;;;;;;;5.63;1.50;;;;;;;12.35;24.64;98718.75;8269119;28;20288;-69
2021/04/15 13:46:32;;;;;;;3.47;1.40;;;;;;;12.11;23.91;98712.78;8269672;28;20236;-70
2021/04/15 13:51:20;;;;;;;1.75;1.40;;;;;;;12.92;23.90;98706.06;8268823;28;20423;-60
2021/04/15 13:55:34;;;;;;;3.33;1.67;;;;;;;12.78;24.07;98696.25;8270239;28;20492;-63
2021/04/15 13:59:42;;;;;;;3.77;1.60;;;;;;;13.64;26.12;98700.34;8269738;28;20301;-62
2021/04/15 14:03:45;;;;;;;3.40;1.50;;;;;;;13.08;24.80;98707.09;8269100;28;20205;-64
2021/04/15 14:07:50;;;;;;;1.77;1.40;;;;;;;12.70;24.28;98700.94;8270211;28;20646;-64
2021/04/15 14:11:55;;;;;;;1.73;1.20;;;;;;;12.74;24.27;98696.41;8270289;28;20256;-64
2021/04/15 14:15:59;;;;;;;1.40;1.03;;;;;;;12.65;24.61;98701.09;8268900;28;20246;-71
2021/04/15 14:20:10;;;;;;;2.10;1.30;;;;;;;12.26;24.13;98699.22;8268167;28;20256;-69
2021/04/15 14:24:17;;;;;;;2.40;1.20;;;;;;;12.10;24.33;98698.94;8268670;28;20333;-68
2021/04/15 14:28:22;;;;;;;2.77;1.20;;;;;;;11.95;24.83;98685.72;8268936;28;20186;-70
2021/04/15 14:32:28;;;;;;;2.83;1.40;;;;;;;11.97;25.05;98689.94;8268120;28;20499;-69
2021/04/15 14:36:32;;;;;;;1.87;1.23;;;;;;;12.06;24.63;98681.81;8267562;28;20198;-68
2021/04/15 14:40:37;;;;;;;3.37;1.67;;;;;;;12.55;23.61;98680.78;8266951;28;20210;-68
2021/04/15 14:44:41;;;;;;;1.73;1.17;;;;;;;13.00;23.23;98669.31;8267110;28;20241;-68
2021/04/15 14:48:43;;;;;;;1.73;1.30;;;;;;;13.44;23.02;98674.38;8265167;28;20224;-67
2021/04/15 14:52:46;;;;;;;2.00;1.30;;;;;;;13.16;23.89;98669.53;8266370;28;20572;-68
2021/04/15 14:56:49;;;;;;;1.93;1.27;;;;;;;12.28;22.96;98670.56;8266112;28;20206;-68
2021/04/15 15:00:54;;;;;;;3.73;2.30;;;;;;;11.90;24.13;98675.53;8266185;28;20209;-68
2021/04/15 15:04:59;;;;;;;2.37;1.73;;;;;;;11.86;24.61;98674.78;8265830;28;20320;-68
2021/04/15 15:09:14;;;;;;;3.00;2.03;;;;;;;11.91;25.57;98675.44;8266277;28;20650;-69
2021/04/15 15:13:19;;;;;;;1.10;0.90;;;;;;;11.54;25.66;98675.97;8263713;28;20234;-68
2021/04/15 15:17:24;;;;;;;1.50;1.20;;;;;;;11.69;25.94;98682.31;8264573;28;20230;-64
2021/04/15 15:21:29;;;;;;;3.07;1.00;;;;;;;12.35;25.97;98671.16;8275246;28;20202;-63
2021/04/15 15:25:34;;;;;;;1.73;0.90;;;;;;;12.21;24.33;98675.16;8270973;28;20229;-61
2021/04/15 15:29:39;;;;;;;1.73;1.10;;;;;;;12.41;24.40;98671.75;8272770;28;20244;-62
2021/04/15 15:33:44;;;;;;;3.20;1.00;;;;;;;12.35;26.43;98668.56;8272151;28;20209;-61
2021/04/15 15:37:49;;;;;;;1.73;1.10;;;;;;;12.47;25.69;98670.66;8271650;28;20263;-63
2021/04/15 15:41:52;;;;;;;7.57;1.10;;;;;;;12.36;24.57;98662.50;8272145;28;20225;-61
2021/04/15 15:46:02;;;;;;;1.50;1.00;;;;;;;12.09;25.10;98665.28;8271779;28;20236;-62
2021/04/15 15:50:11;;;;;;;1.87;1.20;;;;;;;12.15;25.36;98664.16;8273360;28;20660;-61
2021/04/15 15:54:27;;;;;;;20.57;1.70;;;;;;;11.87;26.30;98668.66;8271306;28;20206;-62
2021/04/15 15:58:30;;;;;;;4.03;1.30;;;;;;;11.76;28.34;98668.22;8267551;28;20217;-69
2021/04/15 16:02:36;;;;;;;2.47;1.23;;;;;;;11.87;28.00;98660.88;8262773;28;20893;-69
2021/04/15 16:06:39;;;;;;;3.23;1.23;;;;;;;11.45;28.13;98668.53;8264072;28;20245;-68
2021/04/15 16:10:43;;;;;;;3.10;1.60;;;;;;;11.53;27.86;98658.72;8265142;28;20256;-69
2021/04/15 16:14:45;;;;;;;4.97;1.13;;;;;;;11.49;27.27;98664.91;8264902;28;20634;-68
2021/04/15 16:18:48;;;;;;;1.77;1.10;;;;;;;11.30;27.46;98665.56;8264008;28;20315;-68
2021/04/15 16:22:51;;;;;;;1.20;1.10;;;;;;;11.13;27.25;98666.19;8257322;28;20210;-66
2021/04/15 16:26:57;;;;;;;4.43;1.50;;;;;;;11.12;27.63;98661.91;8249006;28;20240;-66
2021/04/15 16:31:00;;;;;;;1.30;0.90;;;;;;;10.96;27.73;98669.34;8253115;28;20259;-67
2021/04/15 16:35:02;;;;;;;1.80;1.37;;;;;;;11.01;27.77;98671.81;8249789;28;20249;-67
2021/04/15 16:39:05;;;;;;;2.43;1.27;;;;;;;11.02;28.02;98670.88;8248099;28;20206;-66
2021/04/15 16:43:07;;;;;;;1.83;1.37;;;;;;;11.01;28.16;98670.97;8248149;28;20194;-66
2021/04/15 16:47:09;;;;;;;3.07;1.40;;;;;;;10.64;29.00;98674.78;8248530;28;20234;-66
2021/04/15 16:51:11;;;;;;;2.10;1.20;;;;;;;10.61;30.18;98680.94;8249754;28;20197;-67
2021/04/15 16:55:15;;;;;;;3.17;1.60;;;;;;;10.54;30.82;98679.44;8250834;28;20280;-66
2021/04/15 16:59:17;;;;;;;3.87;2.30;;;;;;;10.48;30.14;98669.28;8255566;28;20206;-69
2021/04/15 17:03:19;;;;;;;2.17;1.20;;;;;;;10.44;29.91;98665.94;8270911;28;20194;-68
2021/04/15 17:07:25;;;;;;;1.43;1.20;;;;;;;10.59;30.04;98669.78;8274151;28;20633;-67
2021/04/15 17:11:27;;;;;;;2.13;1.43;;;;;;;10.55;29.57;98675.97;8273544;28;20211;-69
2021/04/15 17:15:29;;;;;;;2.40;1.30;;;;;;;10.35;30.24;98659.31;8273460;28;20229;-67
2021/04/15 17:19:31;;;;;;;1.63;1.20;;;;;;;10.51;30.52;98669.19;8274935;28;20600;-67
2021/04/15 17:23:34;;;;;;;4.13;1.20;;;;;;;10.29;30.18;98663.81;8274271;28;20213;-67
2021/04/15 17:27:37;;;;;;;3.70;1.50;;;;;;;10.29;30.61;98667.25;8274589;28;20609;-67
2021/04/15 17:31:39;;;;;;;3.40;1.73;;;;;;;9.87;31.17;98674.63;8271290;28;20250;-67
2021/04/15 17:35:44;;;;;;;2.83;1.50;;;;;;;9.51;31.06;98674.81;8263296;28;20197;-67
2021/04/15 17:39:46;;;;;;;3.60;1.27;;;;;;;9.41;31.51;98691.47;8260408;28;20205;-67
2021/04/15 17:43:48;;;;;;;3.43;1.53;;;;;;;9.58;31.44;98684.94;8263161;28;20221;-67
2021/04/15 17:47:50;;;;;;;1.70;1.53;;;;;;;9.69;32.04;98689.78;8269167;28;20234;-66
2021/04/15 17:51:53;;;;;;;2.60;1.70;;;;;;;9.58;31.80;98692.69;8260658;28;20200;-66
2021/04/15 17:55:55;;;;;;;2.80;1.73;;;;;;;9.59;31.68;98694.38;8273909;28;20214;-66
2021/04/15 17:59:58;;;;;;;2.63;1.83;;;;;;;9.19;32.10;98692.06;8272779;28;20214;-66
2021/04/15 18:04:00;;;;;;;1.83;1.73;;;;;;;9.08;32.49;98687.19;8271981;28;20309;-67
2021/04/15 18:08:03;;;;;;;3.40;3.10;;;;;;;9.17;32.61;98693.81;8271201;28;20226;-67
2021/04/15 18:12:06;;;;;;;3.20;2.90;;;;;;;9.11;33.04;98700.00;8266547;28;20202;-66
2021/04/15 18:16:09;;;;;;;4.20;2.70;;;;;;;8.99;33.45;98697.75;8267586;28;20670;-66
2021/04/15 18:20:16;;;;;;;5.17;3.90;;;;;;;9.07;33.30;98706.16;8265125;28;20220;-66
2021/04/15 18:24:18;;;;;;;11.43;3.50;;;;;;;10.81;53.43;98713.09;8267933;28;20316;-70
2021/04/15 18:28:23;;;;;;;5.90;2.72;;;;;;;11.66;37.90;98709.22;8253904;28;20472;-71
2021/04/15 18:32:26;;;;;;;7.23;4.90;;;;;;;11.28;31.74;98719.25;8267941;28;20206;-66
2021/04/15 18:36:31;;;;;;;7.70;4.77;;;;;;;10.14;33.26;98719.50;8264903;28;20226;-66
2021/04/15 18:40:34;;;;;;;5.83;2.70;;;;;;;9.33;33.85;98722.72;8267601;28;20205;-66
2021/04/15 18:44:36;;;;;;;3.93;2.93;;;;;;;9.41;34.76;98728.50;8267281;28;20237;-65
2021/04/15 18:48:39;;;;;;;3.20;2.73;;;;;;;9.46;34.74;98731.81;8267429;28;20220;-66
2021/04/15 18:52:41;;;;;;;3.73;2.20;;;;;;;8.92;36.00;98743.56;8266812;28;20206;-65
2021/04/15 18:56:43;;;;;;;3.30;2.20;;;;;;;8.94;36.01;98741.78;8250697;28;20211;-65
2021/04/15 19:00:48;;;;;;;5.47;2.67;;;;;;;9.25;35.87;98746.16;8255666;28;20213;-64
2021/04/15 19:04:51;;;;;;;4.67;2.60;;;;;;;8.58;36.54;98749.53;8265695;28;20312;-65
2021/04/15 19:08:55;;;;;;;2.77;2.27;;;;;;;8.70;36.66;98751.00;8266450;28;20221;-65
2021/04/15 19:12:57;;;;;;;2.80;2.10;;;;;;;8.76;36.61;98753.44;8266420;28;20728;-65
2021/04/15 19:16:59;;;;;;;2.57;2.20;;;;;;;8.71;36.95;98759.59;8266748;28;20245;-64
2021/04/15 19:21:04;;;;;;;1.97;1.83;;;;;;;8.72;37.07;98754.41;8266480;28;20201;-65
2021/04/15 19:25:07;;;;;;;1.90;1.70;;;;;;;8.77;37.33;98749.09;8266293;28;20317;-65
2021/04/15 19:29:09;;;;;;;5.50;2.43;;;;;;;8.47;37.90;98759.28;8266546;28;20217;-64
2021/04/15 19:33:11;;;;;;;2.47;1.80;;;;;;;8.72;37.91;98756.97;8266396;28;20550;-64
2021/04/15 19:37:14;;;;;;;6.07;2.30;;;;;;;8.85;37.56;98760.09;8265760;28;20628;-64